sensor_id;sensor_type;location;lat;lon;timestamp;P1;P2;P0
35654;PMS1003;21773;50.010;19.972;2023-06-26T00:02:52;11.00;9.00;8.00
35654;PMS1003;21773;50.010;19.972;2023-06-26T00:05:56;13.00;11.25;10.00
35654;PMS1003;21773;50.010;19.972;2023-06-26T00:09:02;10.60;9.00;8.00
35654;PMS1003;21773;50.010;19.972;2023-06-26T00:12:07;12.00;10.60;9.00
35654;PMS1003;21773;50.010;19.972;2023-06-26T00:15:11;11.60;9.60;8.60
35654;PMS1003;21773;50.010;19.972;2023-06-26T00:18:14;11.00;9.00;8.00
35654;PMS1003;21773;50.010;19.972;2023-06-26T00:21:17;11.00;10.50;8.00
35654;PMS1003;21773;50.010;19.972;2023-06-26T00:24:22;9.80;9.00;8.00
35654;PMS1003;21773;50.010;19.972;2023-06-26T00:27:26;10.00;9.50;8.00
35654;PMS1003;21773;50.010;19.972;2023-06-26T00:30:30;9.00;8.00;7.00
35654;PMS1003;21773;50.010;19.972;2023-06-26T00:33:33;6.80;6.00;5.80
35654;PMS1003;21773;50.010;19.972;2023-06-26T00:36:36;10.50;10.50;10.00
35654;PMS1003;21773;50.010;19.972;2023-06-26T00:39:40;9.00;8.00;7.00
35654;PMS1003;21773;50.010;19.972;2023-06-26T00:42:44;13.00;10.40;9.40
35654;PMS1003;21773;50.010;19.972;2023-06-26T00:45:48;10.40;10.40;9.40
35654;PMS1003;21773;50.010;19.972;2023-06-26T00:48:53;9.25;8.00;7.00
35654;PMS1003;21773;50.010;19.972;2023-06-26T00:51:58;11.75;10.75;9.75
35654;PMS1003;21773;50.010;19.972;2023-06-26T00:55:01;9.25;8.25;8.25
35654;PMS1003;21773;50.010;19.972;2023-06-26T00:58:06;12.60;10.60;9.00
35654;PMS1003;21773;50.010;19.972;2023-06-26T01:01:10;10.80;10.00;9.00
35654;PMS1003;21773;50.010;19.972;2023-06-26T01:04:17;11.75;9.25;8.25
35654;PMS1003;21773;50.010;19.972;2023-06-26T01:07:20;11.40;10.40;9.40
35654;PMS1003;21773;50.010;19.972;2023-06-26T01:10:25;12.00;10.75;9.75
35654;PMS1003;21773;50.010;19.972;2023-06-26T01:13:32;10.00;10.00;8.40
35654;PMS1003;21773;50.010;19.972;2023-06-26T01:16:37;10.00;10.00;8.75
35654;PMS1003;21773;50.010;19.972;2023-06-26T01:19:41;12.00;12.00;11.00
35654;PMS1003;21773;50.010;19.972;2023-06-26T01:22:48;12.40;11.40;10.40
35654;PMS1003;21773;50.010;19.972;2023-06-26T01:26:09;10.00;8.50;7.50
35654;PMS1003;21773;50.010;19.972;2023-06-26T01:29:17;11.40;9.00;8.00
35654;PMS1003;21773;50.010;19.972;2023-06-26T01:32:21;12.25;11.00;10.00
35654;PMS1003;21773;50.010;19.972;2023-06-26T01:35:27;11.40;9.40;8.00
35654;PMS1003;21773;50.010;19.972;2023-06-26T01:38:32;11.00;9.80;8.20
35654;PMS1003;21773;50.010;19.972;2023-06-26T01:41:37;11.67;11.00;9.67
35654;PMS1003;21773;50.010;19.972;2023-06-26T01:44:44;10.00;10.00;8.00
35654;PMS1003;21773;50.010;19.972;2023-06-26T01:47:49;13.00;12.00;10.60
35654;PMS1003;21773;50.010;19.972;2023-06-26T01:50:55;11.00;10.00;9.00
35654;PMS1003;21773;50.010;19.972;2023-06-26T01:54:01;13.00;11.75;10.00
35654;PMS1003;21773;50.010;19.972;2023-06-26T01:57:07;12.00;10.00;8.00
35654;PMS1003;21773;50.010;19.972;2023-06-26T02:00:14;10.60;10.00;9.00
35654;PMS1003;21773;50.010;19.972;2023-06-26T02:03:20;12.00;10.00;8.00
35654;PMS1003;21773;50.010;19.972;2023-06-26T02:06:26;12.80;11.80;10.00
35654;PMS1003;21773;50.010;19.972;2023-06-26T02:09:29;11.00;11.00;10.00
35654;PMS1003;21773;50.010;19.972;2023-06-26T02:12:35;9.00;9.00;8.00
35654;PMS1003;21773;50.010;19.972;2023-06-26T02:15:39;10.00;8.00;7.00
35654;PMS1003;21773;50.010;19.972;2023-06-26T02:18:43;12.00;9.25;8.00
35654;PMS1003;21773;50.010;19.972;2023-06-26T02:21:46;10.00;9.75;8.00
35654;PMS1003;21773;50.010;19.972;2023-06-26T02:24:50;9.00;8.00;7.50
35654;PMS1003;21773;50.010;19.972;2023-06-26T02:27:55;11.80;9.00;8.00
35654;PMS1003;21773;50.010;19.972;2023-06-26T02:30:58;9.00;9.00;8.00
35654;PMS1003;21773;50.010;19.972;2023-06-26T02:34:02;9.60;9.60;7.60
35654;PMS1003;21773;50.010;19.972;2023-06-26T02:37:07;11.60;10.00;9.00
35654;PMS1003;21773;50.010;19.972;2023-06-26T02:40:12;9.80;9.00;8.00
35654;PMS1003;21773;50.010;19.972;2023-06-26T02:43:17;9.60;9.40;8.40
35654;PMS1003;21773;50.010;19.972;2023-06-26T02:46:21;11.00;9.00;8.00
35654;PMS1003;21773;50.010;19.972;2023-06-26T02:49:25;8.00;7.00;6.00
35654;PMS1003;21773;50.010;19.972;2023-06-26T02:52:28;10.00;9.00;8.60
35654;PMS1003;21773;50.010;19.972;2023-06-26T02:55:33;12.00;11.00;9.40
35654;PMS1003;21773;50.010;19.972;2023-06-26T02:58:38;10.60;9.20;8.00
35654;PMS1003;21773;50.010;19.972;2023-06-26T03:01:43;12.40;11.40;10.00
35654;PMS1003;21773;50.010;19.972;2023-06-26T03:04:46;12.00;12.00;10.00
35654;PMS1003;21773;50.010;19.972;2023-06-26T03:07:51;12.00;10.00;9.00
35654;PMS1003;21773;50.010;19.972;2023-06-26T03:10:55;10.00;9.50;8.00
35654;PMS1003;21773;50.010;19.972;2023-06-26T03:13:59;11.00;10.00;9.00
35654;PMS1003;21773;50.010;19.972;2023-06-26T03:17:03;11.67;11.00;9.67
35654;PMS1003;21773;50.010;19.972;2023-06-26T03:20:10;13.00;11.60;10.00
35654;PMS1003;21773;50.010;19.972;2023-06-26T03:23:32;12.20;10.20;9.00
35654;PMS1003;21773;50.010;19.972;2023-06-26T03:26:36;10.00;10.00;9.00
35654;PMS1003;21773;50.010;19.972;2023-06-26T03:29:41;12.00;11.00;9.00
35654;PMS1003;21773;50.010;19.972;2023-06-26T03:32:44;11.60;11.00;9.00
35654;PMS1003;21773;50.010;19.972;2023-06-26T03:35:48;12.00;10.40;8.40
35654;PMS1003;21773;50.010;19.972;2023-06-26T03:38:51;8.00;8.00;7.00
35654;PMS1003;21773;50.010;19.972;2023-06-26T03:41:59;11.00;9.00;7.00
35654;PMS1003;21773;50.010;19.972;2023-06-26T03:45:05;11.00;10.00;8.00
35654;PMS1003;21773;50.010;19.972;2023-06-26T03:48:09;10.40;10.00;9.00
35654;PMS1003;21773;50.010;19.972;2023-06-26T03:51:12;12.40;11.40;10.00
35654;PMS1003;21773;50.010;19.972;2023-06-26T03:54:16;14.00;12.00;10.40
35654;PMS1003;21773;50.010;19.972;2023-06-26T03:57:19;11.00;10.00;9.00
35654;PMS1003;21773;50.010;19.972;2023-06-26T04:00:24;13.00;9.00;8.00
35654;PMS1003;21773;50.010;19.972;2023-06-26T04:03:28;13.00;10.60;9.40
35654;PMS1003;21773;50.010;19.972;2023-06-26T04:06:32;12.00;10.00;9.00
35654;PMS1003;21773;50.010;19.972;2023-06-26T04:09:36;11.00;10.80;9.00
35654;PMS1003;21773;50.010;19.972;2023-06-26T04:12:41;9.20;8.60;7.00
35654;PMS1003;21773;50.010;19.972;2023-06-26T04:15:45;11.00;9.20;8.20
35654;PMS1003;21773;50.010;19.972;2023-06-26T04:18:49;9.00;9.00;8.00
35654;PMS1003;21773;50.010;19.972;2023-06-26T04:21:52;10.00;9.80;8.80
35654;PMS1003;21773;50.010;19.972;2023-06-26T04:24:56;12.00;11.25;10.00
35654;PMS1003;21773;50.010;19.972;2023-06-26T04:27:59;11.60;10.60;9.00
35654;PMS1003;21773;50.010;19.972;2023-06-26T04:31:04;10.00;9.50;9.00
35654;PMS1003;21773;50.010;19.972;2023-06-26T04:34:08;10.40;10.00;8.40
35654;PMS1003;21773;50.010;19.972;2023-06-26T04:37:11;10.40;9.40;8.00
35654;PMS1003;21773;50.010;19.972;2023-06-26T04:40:18;9.20;8.60;7.60
35654;PMS1003;21773;50.010;19.972;2023-06-26T04:43:21;12.00;10.60;8.60
35654;PMS1003;21773;50.010;19.972;2023-06-26T04:46:26;9.00;8.00;7.00
35654;PMS1003;21773;50.010;19.972;2023-06-26T04:49:30;10.60;9.00;6.60
35654;PMS1003;21773;50.010;19.972;2023-06-26T04:52:33;9.75;9.00;7.00
35654;PMS1003;21773;50.010;19.972;2023-06-26T04:55:37;8.75;8.75;7.25
35654;PMS1003;21773;50.010;19.972;2023-06-26T04:58:40;12.40;12.00;10.00
35654;PMS1003;21773;50.010;19.972;2023-06-26T05:01:45;10.00;9.50;8.00
35654;PMS1003;21773;50.010;19.972;2023-06-26T05:04:50;11.80;10.00;9.00
35654;PMS1003;21773;50.010;19.972;2023-06-26T05:07:53;10.00;9.20;8.20
35654;PMS1003;21773;50.010;19.972;2023-06-26T05:10:57;11.00;10.00;8.00
35654;PMS1003;21773;50.010;19.972;2023-06-26T05:14:01;12.60;10.60;8.00
35654;PMS1003;21773;50.010;19.972;2023-06-26T05:17:05;10.00;9.00;8.00
35654;PMS1003;21773;50.010;19.972;2023-06-26T05:20:09;11.00;10.00;9.00
35654;PMS1003;21773;50.010;19.972;2023-06-26T05:23:13;10.25;10.00;8.00
35654;PMS1003;21773;50.010;19.972;2023-06-26T05:26:19;11.00;10.40;9.00
35654;PMS1003;21773;50.010;19.972;2023-06-26T05:29:22;9.00;8.00;7.00
35654;PMS1003;21773;50.010;19.972;2023-06-26T05:32:28;12.67;10.00;9.00
35654;PMS1003;21773;50.010;19.972;2023-06-26T05:35:33;12.60;11.00;10.00
35654;PMS1003;21773;50.010;19.972;2023-06-26T05:38:39;13.67;12.00;9.00
35654;PMS1003;21773;50.010;19.972;2023-06-26T05:41:43;13.40;12.00;10.40
35654;PMS1003;21773;50.010;19.972;2023-06-26T05:44:47;13.00;10.00;9.00
35654;PMS1003;21773;50.010;19.972;2023-06-26T05:47:52;10.50;10.25;9.25
35654;PMS1003;21773;50.010;19.972;2023-06-26T05:50:55;10.00;9.00;8.00
35654;PMS1003;21773;50.010;19.972;2023-06-26T05:53:59;11.00;10.00;9.00
35654;PMS1003;21773;50.010;19.972;2023-06-26T05:57:03;11.00;9.00;8.00
35654;PMS1003;21773;50.010;19.972;2023-06-26T06:00:07;13.00;10.80;8.40
35654;PMS1003;21773;50.010;19.972;2023-06-26T06:03:17;10.00;8.00;6.00
35654;PMS1003;21773;50.010;19.972;2023-06-26T06:06:21;14.00;11.00;10.00
35654;PMS1003;21773;50.010;19.972;2023-06-26T06:09:24;12.00;11.00;10.00
35654;PMS1003;21773;50.010;19.972;2023-06-26T06:12:27;10.00;9.00;8.00
35654;PMS1003;21773;50.010;19.972;2023-06-26T06:15:31;10.20;10.00;8.00
35654;PMS1003;21773;50.010;19.972;2023-06-26T06:18:35;14.00;11.00;9.00
35654;PMS1003;21773;50.010;19.972;2023-06-26T06:21:39;10.20;10.20;8.80
35654;PMS1003;21773;50.010;19.972;2023-06-26T06:24:42;12.00;10.40;9.00
35654;PMS1003;21773;50.010;19.972;2023-06-26T06:27:46;11.00;9.00;8.00
35654;PMS1003;21773;50.010;19.972;2023-06-26T06:30:50;11.20;11.00;9.20
35654;PMS1003;21773;50.010;19.972;2023-06-26T06:33:55;10.00;9.00;7.60
35654;PMS1003;21773;50.010;19.972;2023-06-26T06:36:58;10.20;9.80;8.80
35654;PMS1003;21773;50.010;19.972;2023-06-26T06:40:02;12.00;12.00;10.00
35654;PMS1003;21773;50.010;19.972;2023-06-26T06:43:07;9.00;9.00;8.00
35654;PMS1003;21773;50.010;19.972;2023-06-26T06:46:11;8.25;8.25;7.00
35654;PMS1003;21773;50.010;19.972;2023-06-26T06:49:15;10.20;10.00;8.20
35654;PMS1003;21773;50.010;19.972;2023-06-26T06:52:19;9.00;9.00;8.00
35654;PMS1003;21773;50.010;19.972;2023-06-26T06:55:22;11.25;8.75;6.75
35654;PMS1003;21773;50.010;19.972;2023-06-26T06:58:26;9.60;9.00;7.00
35654;PMS1003;21773;50.010;19.972;2023-06-26T07:01:30;10.50;9.00;7.00
35654;PMS1003;21773;50.010;19.972;2023-06-26T07:04:34;11.40;9.00;8.00
35654;PMS1003;21773;50.010;19.972;2023-06-26T07:07:38;11.00;10.00;8.40
35654;PMS1003;21773;50.010;19.972;2023-06-26T07:10:42;11.20;10.00;8.20
35654;PMS1003;21773;50.010;19.972;2023-06-26T07:13:46;9.60;9.00;7.00
35654;PMS1003;21773;50.010;19.972;2023-06-26T07:16:50;10.00;10.00;8.20
35654;PMS1003;21773;50.010;19.972;2023-06-26T07:19:54;8.80;7.80;6.00
35654;PMS1003;21773;50.010;19.972;2023-06-26T07:22:58;10.20;9.00;7.40
35654;PMS1003;21773;50.010;19.972;2023-06-26T07:26:01;11.00;9.25;8.00
35654;PMS1003;21773;50.010;19.972;2023-06-26T07:29:05;7.50;6.50;5.50
35654;PMS1003;21773;50.010;19.972;2023-06-26T07:32:09;7.75;7.00;5.75
35654;PMS1003;21773;50.010;19.972;2023-06-26T07:35:17;8.40;8.40;7.40
35654;PMS1003;21773;50.010;19.972;2023-06-26T07:38:20;8.00;7.00;6.00
35654;PMS1003;21773;50.010;19.972;2023-06-26T07:41:23;8.00;8.00;7.00
35654;PMS1003;21773;50.010;19.972;2023-06-26T07:44:27;8.00;7.40;7.00
35654;PMS1003;21773;50.010;19.972;2023-06-26T07:47:30;9.67;8.67;7.67
35654;PMS1003;21773;50.010;19.972;2023-06-26T07:50:35;10.00;8.80;6.80
35654;PMS1003;21773;50.010;19.972;2023-06-26T07:53:39;9.00;7.50;7.00
35654;PMS1003;21773;50.010;19.972;2023-06-26T07:56:52;8.00;8.00;7.00
35654;PMS1003;21773;50.010;19.972;2023-06-26T07:59:57;8.00;7.00;6.00
35654;PMS1003;21773;50.010;19.972;2023-06-26T08:03:00;6.00;5.00;4.00
35654;PMS1003;21773;50.010;19.972;2023-06-26T08:06:05;11.40;10.40;9.00
35654;PMS1003;21773;50.010;19.972;2023-06-26T08:09:12;7.00;7.00;5.00
35654;PMS1003;21773;50.010;19.972;2023-06-26T08:12:15;8.00;7.00;6.00
35654;PMS1003;21773;50.010;19.972;2023-06-26T08:15:19;6.80;5.80;5.20
35654;PMS1003;21773;50.010;19.972;2023-06-26T08:18:22;9.00;7.60;6.60
35654;PMS1003;21773;50.010;19.972;2023-06-26T08:21:27;6.00;6.00;5.00
35654;PMS1003;21773;50.010;19.972;2023-06-26T08:24:30;5.00;4.60;4.00
35654;PMS1003;21773;50.010;19.972;2023-06-26T08:27:34;8.00;6.40;6.00
35654;PMS1003;21773;50.010;19.972;2023-06-26T08:30:37;6.00;5.00;4.00
35654;PMS1003;21773;50.010;19.972;2023-06-26T08:33:41;5.50;4.50;4.00
35654;PMS1003;21773;50.010;19.972;2023-06-26T08:36:46;7.60;6.00;5.00
35654;PMS1003;21773;50.010;19.972;2023-06-26T08:39:50;7.00;6.00;6.00
35654;PMS1003;21773;50.010;19.972;2023-06-26T08:42:53;5.75;5.00;4.00
35654;PMS1003;21773;50.010;19.972;2023-06-26T08:45:57;7.00;6.00;5.00
35654;PMS1003;21773;50.010;19.972;2023-06-26T08:49:01;6.00;5.00;4.00
35654;PMS1003;21773;50.010;19.972;2023-06-26T08:52:14;5.00;5.00;4.00
35654;PMS1003;21773;50.010;19.972;2023-06-26T08:55:23;7.00;7.00;6.00
35654;PMS1003;21773;50.010;19.972;2023-06-26T08:58:29;7.40;6.40;5.00
35654;PMS1003;21773;50.010;19.972;2023-06-26T09:01:33;5.00;5.00;5.00
35654;PMS1003;21773;50.010;19.972;2023-06-26T09:04:37;6.75;6.50;5.00
35654;PMS1003;21773;50.010;19.972;2023-06-26T09:07:43;6.00;5.00;5.00
35654;PMS1003;21773;50.010;19.972;2023-06-26T09:10:47;4.60;4.60;4.00
35654;PMS1003;21773;50.010;19.972;2023-06-26T09:13:50;4.40;4.40;4.00
35654;PMS1003;21773;50.010;19.972;2023-06-26T09:16:54;7.00;7.00;5.00
35654;PMS1003;21773;50.010;19.972;2023-06-26T09:19:58;6.40;6.00;5.00
35654;PMS1003;21773;50.010;19.972;2023-06-26T09:23:03;7.75;7.00;5.75
35654;PMS1003;21773;50.010;19.972;2023-06-26T09:26:07;7.00;6.00;4.00
35654;PMS1003;21773;50.010;19.972;2023-06-26T09:29:10;5.00;4.00;4.00
35654;PMS1003;21773;50.010;19.972;2023-06-26T09:32:14;6.00;5.00;4.00
35654;PMS1003;21773;50.010;19.972;2023-06-26T09:35:18;6.00;5.00;4.00
35654;PMS1003;21773;50.010;19.972;2023-06-26T09:38:22;5.40;5.00;4.00
35654;PMS1003;21773;50.010;19.972;2023-06-26T09:41:26;6.20;6.00;5.00
35654;PMS1003;21773;50.010;19.972;2023-06-26T09:44:30;5.00;4.00;4.00
35654;PMS1003;21773;50.010;19.972;2023-06-26T09:47:34;7.80;6.00;5.00
35654;PMS1003;21773;50.010;19.972;2023-06-26T09:50:38;6.00;6.00;5.00
35654;PMS1003;21773;50.010;19.972;2023-06-26T09:54:06;6.00;6.00;5.00
35654;PMS1003;21773;50.010;19.972;2023-06-26T09:57:11;8.40;6.60;5.00
35654;PMS1003;21773;50.010;19.972;2023-06-26T10:00:15;8.00;6.00;5.20
35654;PMS1003;21773;50.010;19.972;2023-06-26T10:03:20;4.25;4.00;3.25
35654;PMS1003;21773;50.010;19.972;2023-06-26T10:06:25;6.00;5.00;4.00
35654;PMS1003;21773;50.010;19.972;2023-06-26T10:09:32;5.00;4.75;4.75
35654;PMS1003;21773;50.010;19.972;2023-06-26T10:12:38;4.60;4.00;4.00
35654;PMS1003;21773;50.010;19.972;2023-06-26T10:15:42;5.20;5.20;5.00
35654;PMS1003;21773;50.010;19.972;2023-06-26T10:18:48;5.40;5.00;4.00
35654;PMS1003;21773;50.010;19.972;2023-06-26T10:21:56;6.00;5.00;5.00
35654;PMS1003;21773;50.010;19.972;2023-06-26T10:25:03;5.00;4.50;4.00
35654;PMS1003;21773;50.010;19.972;2023-06-26T10:28:10;8.00;7.40;7.00
35654;PMS1003;21773;50.010;19.972;2023-06-26T10:31:15;6.40;5.60;5.40
35654;PMS1003;21773;50.010;19.972;2023-06-26T10:34:19;6.00;6.00;5.00
35654;PMS1003;21773;50.010;19.972;2023-06-26T10:40:46;7.60;7.60;6.00
35654;PMS1003;21773;50.010;19.972;2023-06-26T10:43:51;7.80;6.00;5.00
35654;PMS1003;21773;50.010;19.972;2023-06-26T10:47:10;8.40;7.40;6.60
35654;PMS1003;21773;50.010;19.972;2023-06-26T10:50:18;6.00;6.00;5.60
35654;PMS1003;21773;50.010;19.972;2023-06-26T10:53:25;9.00;8.00;7.00
35654;PMS1003;21773;50.010;19.972;2023-06-26T10:56:46;7.60;6.60;6.00
35654;PMS1003;21773;50.010;19.972;2023-06-26T11:03:22;8.00;8.00;6.00
35654;PMS1003;21773;50.010;19.972;2023-06-26T11:06:29;7.00;7.00;6.00
35654;PMS1003;21773;50.010;19.972;2023-06-26T11:09:33;7.60;7.00;6.00
35654;PMS1003;21773;50.010;19.972;2023-06-26T11:12:58;7.40;7.40;6.00
35654;PMS1003;21773;50.010;19.972;2023-06-26T11:16:04;8.00;6.40;5.00
35654;PMS1003;21773;50.010;19.972;2023-06-26T11:19:08;9.00;8.00;7.75
35654;PMS1003;21773;50.010;19.972;2023-06-26T11:22:12;8.00;7.50;6.75
35654;PMS1003;21773;50.010;19.972;2023-06-26T11:25:19;7.00;7.00;6.20
35654;PMS1003;21773;50.010;19.972;2023-06-26T11:28:24;8.25;7.00;6.00
35654;PMS1003;21773;50.010;19.972;2023-06-26T11:31:29;6.00;6.00;5.40
35654;PMS1003;21773;50.010;19.972;2023-06-26T11:34:34;5.80;5.40;4.80
35654;PMS1003;21773;50.010;19.972;2023-06-26T11:37:39;8.00;7.00;6.00
35654;PMS1003;21773;50.010;19.972;2023-06-26T11:40:42;8.00;8.00;6.60
35654;PMS1003;21773;50.010;19.972;2023-06-26T11:43:47;8.00;8.00;7.00
35654;PMS1003;21773;50.010;19.972;2023-06-26T11:46:54;8.00;7.00;6.00
35654;PMS1003;21773;50.010;19.972;2023-06-26T11:49:58;6.20;6.20;5.80
35654;PMS1003;21773;50.010;19.972;2023-06-26T11:53:01;8.60;6.60;6.00
35654;PMS1003;21773;50.010;19.972;2023-06-26T11:56:07;8.00;7.25;6.50
35654;PMS1003;21773;50.010;19.972;2023-06-26T11:59:13;7.00;7.00;6.00
35654;PMS1003;21773;50.010;19.972;2023-06-26T12:02:16;7.20;7.00;6.00
35654;PMS1003;21773;50.010;19.972;2023-06-26T12:05:20;7.00;7.00;6.00
35654;PMS1003;21773;50.010;19.972;2023-06-26T12:08:24;8.00;7.40;7.00
35654;PMS1003;21773;50.010;19.972;2023-06-26T12:11:28;8.00;7.00;6.00
35654;PMS1003;21773;50.010;19.972;2023-06-26T12:14:34;6.00;6.00;5.25
35654;PMS1003;21773;50.010;19.972;2023-06-26T12:17:38;8.00;6.00;5.00
35654;PMS1003;21773;50.010;19.972;2023-06-26T12:20:42;6.00;6.00;6.00
35654;PMS1003;21773;50.010;19.972;2023-06-26T12:23:45;7.33;6.00;5.00
35654;PMS1003;21773;50.010;19.972;2023-06-26T12:26:50;6.75;5.75;4.75
35654;PMS1003;21773;50.010;19.972;2023-06-26T12:29:57;5.00;5.00;4.75
35654;PMS1003;21773;50.010;19.972;2023-06-26T12:33:00;6.00;6.00;5.33
35654;PMS1003;21773;50.010;19.972;2023-06-26T12:36:04;8.00;7.60;7.00
35654;PMS1003;21773;50.010;19.972;2023-06-26T12:39:09;7.50;7.25;7.00
35654;PMS1003;21773;50.010;19.972;2023-06-26T12:42:14;10.00;9.00;8.00
35654;PMS1003;21773;50.010;19.972;2023-06-26T12:45:19;10.00;10.00;9.00
35654;PMS1003;21773;50.010;19.972;2023-06-26T12:48:37;7.80;7.80;6.80
35654;PMS1003;21773;50.010;19.972;2023-06-26T12:51:45;8.00;8.00;7.00
35654;PMS1003;21773;50.010;19.972;2023-06-26T12:54:51;8.20;8.00;7.00
35654;PMS1003;21773;50.010;19.972;2023-06-26T12:57:55;8.00;8.00;7.00
35654;PMS1003;21773;50.010;19.972;2023-06-26T13:01:01;8.00;7.00;7.00
35654;PMS1003;21773;50.010;19.972;2023-06-26T13:04:06;10.60;8.00;7.00
35654;PMS1003;21773;50.010;19.972;2023-06-26T13:07:10;8.00;7.25;6.25
35654;PMS1003;21773;50.010;19.972;2023-06-26T13:10:13;8.00;8.00;7.00
35654;PMS1003;21773;50.010;19.972;2023-06-26T13:13:17;10.00;8.00;7.60
35654;PMS1003;21773;50.010;19.972;2023-06-26T13:16:22;7.60;7.60;6.00
35654;PMS1003;21773;50.010;19.972;2023-06-26T13:19:25;8.00;7.00;6.00
35654;PMS1003;21773;50.010;19.972;2023-06-26T13:22:29;8.00;7.75;7.00
35654;PMS1003;21773;50.010;19.972;2023-06-26T13:25:32;8.80;8.40;7.40
35654;PMS1003;21773;50.010;19.972;2023-06-26T13:28:36;8.60;8.60;8.00
35654;PMS1003;21773;50.010;19.972;2023-06-26T13:31:41;10.50;9.00;9.00
35654;PMS1003;21773;50.010;19.972;2023-06-26T13:34:44;10.60;9.00;8.00
35654;PMS1003;21773;50.010;19.972;2023-06-26T13:37:48;10.20;9.20;8.20
35654;PMS1003;21773;50.010;19.972;2023-06-26T13:40:51;8.80;8.80;8.00
35654;PMS1003;21773;50.010;19.972;2023-06-26T13:43:55;10.60;9.60;8.60
35654;PMS1003;21773;50.010;19.972;2023-06-26T13:47:15;9.00;8.20;8.00
35654;PMS1003;21773;50.010;19.972;2023-06-26T13:50:18;10.00;10.00;9.00
35654;PMS1003;21773;50.010;19.972;2023-06-26T13:53:22;10.20;8.20;7.80
35654;PMS1003;21773;50.010;19.972;2023-06-26T13:56:25;10.00;10.00;9.00
35654;PMS1003;21773;50.010;19.972;2023-06-26T13:59:32;9.00;8.25;7.00
35654;PMS1003;21773;50.010;19.972;2023-06-26T14:02:38;8.00;8.00;7.00
35654;PMS1003;21773;50.010;19.972;2023-06-26T14:05:41;10.40;9.40;8.60
35654;PMS1003;21773;50.010;19.972;2023-06-26T14:08:45;8.60;7.60;7.00
35654;PMS1003;21773;50.010;19.972;2023-06-26T14:11:50;9.00;8.00;7.40
35654;PMS1003;21773;50.010;19.972;2023-06-26T14:14:54;9.00;8.75;8.00
35654;PMS1003;21773;50.010;19.972;2023-06-26T14:17:58;9.40;9.00;8.00
35654;PMS1003;21773;50.010;19.972;2023-06-26T14:21:05;9.20;8.20;8.00
35654;PMS1003;21773;50.010;19.972;2023-06-26T14:24:08;11.33;11.00;11.00
35654;PMS1003;21773;50.010;19.972;2023-06-26T14:27:12;10.20;10.00;9.00
35654;PMS1003;21773;50.010;19.972;2023-06-26T14:30:15;9.80;9.00;8.40
35654;PMS1003;21773;50.010;19.972;2023-06-26T14:33:20;12.00;11.60;10.00
35654;PMS1003;21773;50.010;19.972;2023-06-26T14:36:23;9.00;9.00;8.00
35654;PMS1003;21773;50.010;19.972;2023-06-26T14:39:28;9.00;8.80;7.20
35654;PMS1003;21773;50.010;19.972;2023-06-26T14:42:32;12.75;11.75;10.75
35654;PMS1003;21773;50.010;19.972;2023-06-26T14:45:36;10.00;8.40;7.40
35654;PMS1003;21773;50.010;19.972;2023-06-26T14:48:41;10.20;10.00;9.00
35654;PMS1003;21773;50.010;19.972;2023-06-26T14:51:44;9.50;8.00;8.00
35654;PMS1003;21773;50.010;19.972;2023-06-26T14:54:48;12.00;12.00;10.20
35654;PMS1003;21773;50.010;19.972;2023-06-26T14:57:51;13.00;12.00;11.00
35654;PMS1003;21773;50.010;19.972;2023-06-26T15:00:54;11.50;10.00;9.00
35654;PMS1003;21773;50.010;19.972;2023-06-26T15:04:00;11.00;10.00;9.00
35654;PMS1003;21773;50.010;19.972;2023-06-26T15:07:04;10.80;10.00;8.80
35654;PMS1003;21773;50.010;19.972;2023-06-26T15:10:08;11.00;10.50;10.00
35654;PMS1003;21773;50.010;19.972;2023-06-26T15:13:12;9.60;9.60;9.00
35654;PMS1003;21773;50.010;19.972;2023-06-26T15:16:15;11.20;10.20;9.20
35654;PMS1003;21773;50.010;19.972;2023-06-26T15:19:22;9.00;8.60;8.00
35654;PMS1003;21773;50.010;19.972;2023-06-26T15:22:26;12.00;12.00;11.00
35654;PMS1003;21773;50.010;19.972;2023-06-26T15:25:29;11.00;11.00;10.00
35654;PMS1003;21773;50.010;19.972;2023-06-26T15:28:36;9.00;8.60;8.00
35654;PMS1003;21773;50.010;19.972;2023-06-26T15:31:40;10.00;10.00;9.00
35654;PMS1003;21773;50.010;19.972;2023-06-26T15:34:45;12.00;10.60;9.60
35654;PMS1003;21773;50.010;19.972;2023-06-26T15:37:48;7.50;7.50;7.00
35654;PMS1003;21773;50.010;19.972;2023-06-26T15:40:52;8.00;7.00;6.40
35654;PMS1003;21773;50.010;19.972;2023-06-26T15:43:55;7.00;6.75;6.00
35654;PMS1003;21773;50.010;19.972;2023-06-26T15:46:59;11.40;10.40;9.40
35654;PMS1003;21773;50.010;19.972;2023-06-26T15:50:04;9.00;9.00;8.00
35654;PMS1003;21773;50.010;19.972;2023-06-26T15:53:08;12.50;12.00;10.00
35654;PMS1003;21773;50.010;19.972;2023-06-26T15:56:11;11.00;10.80;10.20
35654;PMS1003;21773;50.010;19.972;2023-06-26T15:59:18;11.40;11.00;10.00
35654;PMS1003;21773;50.010;19.972;2023-06-26T16:02:22;12.40;12.00;11.40
35654;PMS1003;21773;50.010;19.972;2023-06-26T16:05:26;10.80;10.00;9.80
35654;PMS1003;21773;50.010;19.972;2023-06-26T16:08:30;13.00;13.00;11.00
35654;PMS1003;21773;50.010;19.972;2023-06-26T16:11:33;12.00;10.80;10.00
35654;PMS1003;21773;50.010;19.972;2023-06-26T16:14:37;13.00;11.25;10.25
35654;PMS1003;21773;50.010;19.972;2023-06-26T16:17:40;12.00;11.00;10.00
35654;PMS1003;21773;50.010;19.972;2023-06-26T16:20:45;10.60;9.60;8.00
35654;PMS1003;21773;50.010;19.972;2023-06-26T16:23:48;11.00;11.00;10.00
35654;PMS1003;21773;50.010;19.972;2023-06-26T16:26:52;11.00;10.00;9.00
35654;PMS1003;21773;50.010;19.972;2023-06-26T16:29:56;11.00;11.00;10.00
35654;PMS1003;21773;50.010;19.972;2023-06-26T16:33:01;11.20;11.00;10.00
35654;PMS1003;21773;50.010;19.972;2023-06-26T16:36:06;14.00;13.00;12.00
35654;PMS1003;21773;50.010;19.972;2023-06-26T16:39:09;9.80;9.20;8.20
35654;PMS1003;21773;50.010;19.972;2023-06-26T16:42:17;11.80;11.00;10.00
35654;PMS1003;21773;50.010;19.972;2023-06-26T16:45:22;13.20;11.20;9.80
35654;PMS1003;21773;50.010;19.972;2023-06-26T16:48:25;11.00;10.00;9.40
35654;PMS1003;21773;50.010;19.972;2023-06-26T16:51:30;12.00;12.00;11.25
35654;PMS1003;21773;50.010;19.972;2023-06-26T16:54:34;12.40;11.40;10.40
35654;PMS1003;21773;50.010;19.972;2023-06-26T16:57:37;12.40;12.00;11.00
35654;PMS1003;21773;50.010;19.972;2023-06-26T17:00:41;11.60;11.00;10.00
35654;PMS1003;21773;50.010;19.972;2023-06-26T17:03:45;10.40;10.40;9.40
35654;PMS1003;21773;50.010;19.972;2023-06-26T17:06:50;10.50;10.50;10.00
35654;PMS1003;21773;50.010;19.972;2023-06-26T17:09:53;12.60;12.60;11.00
35654;PMS1003;21773;50.010;19.972;2023-06-26T17:12:56;13.00;11.40;10.40
35654;PMS1003;21773;50.010;19.972;2023-06-26T17:16:00;13.00;12.00;11.00
35654;PMS1003;21773;50.010;19.972;2023-06-26T17:19:03;11.00;10.60;10.00
35654;PMS1003;21773;50.010;19.972;2023-06-26T17:22:08;11.00;11.00;10.00
35654;PMS1003;21773;50.010;19.972;2023-06-26T17:25:12;13.00;12.00;11.00
35654;PMS1003;21773;50.010;19.972;2023-06-26T17:28:16;11.40;11.00;9.40
35654;PMS1003;21773;50.010;19.972;2023-06-26T17:31:19;11.75;11.00;10.25
35654;PMS1003;21773;50.010;19.972;2023-06-26T17:34:23;11.00;10.50;9.00
35654;PMS1003;21773;50.010;19.972;2023-06-26T17:37:28;12.00;11.00;11.00